Decoded Metar for TFFF (FORT-DE-FRANCE in ANTILLES) (IATA:FDF) | Meteo·Mobile Aviation Weather
aviador You're here:

TFFF Decoded Metar

FORT-DE-FRANCE in ANTILLES
Report Time2019-01-19 05:30:00
UTC Time2019-01-19 05:54:32
Flight Rules vfr VFR
Wind120° at 04 kt
W.Decomp.*RWY 10: 3.3 kt HW 2.3 kt RCW
W.Rank120° ranks 10
Current wind is below 120° avg. (7.1)
Visibility9999 m
Phenomena:N/A
Clouds:Few 024 Hf
Expected CloudBase > 800 ft AGL from Temp-Dew spread
CeilingNone
Temp21°C (ISA +6)
Dew Point19°C (88% RH)
QNH1015 hPa
Density Alt942 ft
Elevation16 ft
Report Wrong Elevation
Raw Report
METAR TFFF 190530Z AUTO 12004KT 9999 FEW024 21/19 Q1015 NOSIG=

Extra information for TFFF:More info

Metar Taf Metar & Taf Last 4 Metars F.Rules Stats Wind Profile Meteogram Temp Stats Airport Information Weather charts Add Link Nearby VenuesMetar ALERT Operation Metar Decoded Social comments